Terminal Aerodrome Forecast
Issued by NWS Memphis, TN

Home | Current Version | Previous Version | Text Only | Print | Product List | Glossary On
Versions: 1 2 3 4 5 6 7 8 9 10 11 12 13 14 15 16 17 18 19 20 21 22 23 24 25 26 27 28 29 30 31 32 33
000
FTUS44 KMEG 171908 AAA
TAFMEM
TAF AMD
KMEM 171908Z 1719/1824 21007KT P6SM -SHRA FEW015 BKN035
      TEMPO 1719/1720 6SM -RA BKN015
     FM172000 28006KT 6SM BR VCSH SCT008 BKN015
     FM180000 32005KT P6SM SCT020 BKN250
     FM180300 02004KT P6SM FEW020 FEW250
     FM180800 06004KT 5SM BR FEW005 SCT250
     FM181400 14009KT P6SM SCT020 BKN250=

USA.gov is the U.S. government's official web portal to all federal, state and local government web resources and services.